Welcome to La Porte Aviation Services!

An aviation adventure awaits

Current Weather Conditions

Available data for KPPO from the past 2 hours
LA PORTE, IN
Metar
KPPO 021255Z AUTO 00000KT 10SM CLR 24/19 A3007 RMK AO2 T02410186

12:55 UTC

Wind: 0° 0kt

Visibility: 10 SM

Sky:

Temp: 24 deg C / 75.2 deg F

Dewpoint: 19 deg C / 66.2 deg F

Pressure: 30.07 inHg

Connect with us on Facebook!

Facebook By Weblizar Powered By Weblizar